Annamoriah, WV

2:22 AM EDT on July 28, 2014 (GMT -0400)
Deerfield (KWVSPENC3) Elev 950 ft | 38.82 °N, 81.38 °W | Change Station

Current weather conditions updated 2 minutes ago

Partly Cloudy
Partly Cloudy
69.2 °F
Feels Like 69.2 °F
N
0.0
Wind Variable Wind from WNW
Gusts 5.0 mph

Today is forecast to be Much Cooler than yesterday. Chance of showers.

Today
High -- | Low -- °F
--% Chance of Precip.
Yesterday
High -- | Low -- °F
Precip. -- in
6:22 AM 8:40 PM
New Moon, 2% visible
Pressure 29.75 in
Visibility 10.0 miles
Clouds Few 8000 ft
Few 9500 ft
Dew Point 66 °F
Humidity 91%
Rainfall 0.00 in
Snow Depth Not available.
UV 0 out of 12
Pollen .70 out of 12
Air Quality Not available.
Flu Activity Not available.
METAR KCRW 280554Z 23009KT 10SM FEW080 FEW095 20/19 A2977 RMK AO2 SLP073 VLY FG 60041 T02000194 10267 20200 53002 $

More Conditions Fewer Conditions

Pressure 29.75 in
Visibility 10.0 miles
Clouds Few 8000 ft
Few 9500 ft
Dew Point 66 °F
Humidity 91%
Rainfall 0.00 in
Snow Depth Not available.
UV 0 out of 12
Pollen .70 out of 12
Air Quality Not available.
Flu Activity Not available.
METAR KCRW 280554Z 23009KT 10SM FEW080 FEW095 20/19 A2977 RMK AO2 SLP073 VLY FG 60041 T02000194 10267 20200 53002 $

More Conditions Fewer Conditions

10-Day Weather Forecast

Almanac

Astronomy

Jul. 28, 2014 Rise Set
Actual Time 6:22 AM EDT 8:40 PM EDT
Civil Twilight 5:52 AM EDT 9:10 PM EDT
Nautical Twilight 5:15 AM EDT 9:47 PM EDT
Astronomical Twilight 4:34 AM EDT 10:27 PM EDT
Moon 8:01 AM EDT 9:22 PM EDT
Length of Visible Light 15h 17m
Length of Day
14h 17m
Tomorrow will be 1m 48s shorter.
New Moon, 2% of the Moon is Illuminated
Today
New Moon
Aug 3
First Quarter
Aug 10
Full
Aug 17
Last Quarter
Aug 25
New

Today's Extremes

State Highs State Lows

Community

WunderPhotos

Upload Photos

1,738,289 photos uploaded!

Nearby

Snow Depth

Station Depth Elevation
No new snow has been reported.

Earthquake Activity

City Distance Mag. Time & Date
No recent earthquake activity has been reported nearby.
Minimum magnitude displayed is 2.5.

Coastal Water Temperatures

Place Temperature
No Stations Reporting

Nearby Weather Stations

Station Location Temp. Heat Index Dew Point Humidity Wind Precip. Elev Updated Type
Reedy, WV, Reedy, WV 73.0 °F 71 °F 70 °F 90% South  at  0.0 mph 0.00 in / hr 750 ft 12:00 AM EDT Normal
Deerfield, Spencer, WV 69.2 °F - 66 °F 91% WNW  at  0.0 mph 0.00 in / hr 950 ft 2:20 AM EDT Normal
Park Avenue, Spencer, WV 69.2 °F - 66 °F 88% SSW  at  0.0 mph 0.00 in / hr 820 ft 2:22 AM EDT Rapid Fire
APRSWXNET Harrisville WV US, Hazelgreen, WV 69 °F - 69 °F 100% North  at  0 mph 0.00 in / hr 806 ft 1:38 AM EDT MADIS
Brooklyn Point, Glenville, WV 74.3 °F 75 °F 68 °F 81% South  at  0.0 mph - / hr 732 ft 1:11 AM CDT Normal

Show More Stations Show Fewer Stations